Time;durP1;ratioP1;P1;durP2;ratioP2;P2;SDS_P1;SDS_P2;PMS_P1;PMS_P2;Temp;Humidity;BMP_temperature;BMP_pressure;BME280_temperature;BME280_humidity;BME280_pressure;Samples;Min_cycle;Max_cycle;Signal;HPM_P1;HPM_P2
2024/01/29 00:01:39;;;;;;;0.28;0.28;;;;;;;2.56;59.40;102140.47;4370581;32;33058;-84
2024/01/29 00:04:07;;;;;;;0.62;0.62;;;;;;;2.58;58.92;102143.16;4350508;32;33581;-84
2024/01/29 00:06:34;;;;;;;2.72;1.80;;;;;;;2.62;58.46;102150.22;4361899;32;36066;-84
2024/01/29 00:09:02;;;;;;;0.40;0.40;;;;;;;2.68;58.29;102142.53;4355380;32;33362;-84
2024/01/29 00:11:34;;;;;;;0.77;0.77;;;;;;;2.66;58.23;102134.69;4371324;32;34239;-84
2024/01/29 00:14:02;;;;;;;1.17;1.17;;;;;;;2.56;58.71;102130.03;4370377;32;33871;-84
2024/01/29 00:16:30;;;;;;;1.98;1.00;;;;;;;2.51;58.57;102131.66;4358489;32;33470;-85
2024/01/29 00:18:59;;;;;;;0.43;0.43;;;;;;;2.36;59.36;102126.03;4355477;32;34064;-84
2024/01/29 00:21:33;;;;;;;0.30;0.30;;;;;;;2.41;59.24;102120.09;4357657;32;32858;-85
2024/01/29 00:24:02;;;;;;;2.35;1.65;;;;;;;2.16;60.63;102125.50;4373061;32;34199;-84
2024/01/29 00:26:29;;;;;;;0.43;0.43;;;;;;;2.41;59.63;102122.69;4338568;32;35783;-84
2024/01/29 00:28:57;;;;;;;1.02;1.02;;;;;;;2.41;59.61;102127.91;4337574;32;32870;-85
2024/01/29 00:31:25;;;;;;;0.17;0.17;;;;;;;2.36;59.29;102123.41;4329942;32;31983;-84
2024/01/29 00:33:53;;;;;;;10.98;0.90;;;;;;;2.38;59.50;102119.16;4366681;32;34549;-85
2024/01/29 00:36:21;;;;;;;0.88;0.88;;;;;;;2.54;58.94;102123.91;4351291;32;34105;-84
2024/01/29 00:38:48;;;;;;;3.10;1.60;;;;;;;2.50;58.17;102114.25;4356477;32;33695;-84
2024/01/29 00:41:16;;;;;;;1.45;1.33;;;;;;;2.43;58.57;102122.75;4347335;32;31857;-84
2024/01/29 00:43:43;;;;;;;1.62;1.52;;;;;;;2.24;59.20;102131.81;4353819;32;34304;-84
2024/01/29 00:46:11;;;;;;;0.25;0.25;;;;;;;2.44;58.47;102134.94;4373210;32;33226;-85
2024/01/29 00:48:42;;;;;;;0.20;0.20;;;;;;;2.31;59.05;102129.38;4359306;32;34668;-85
2024/01/29 00:51:10;;;;;;;1.02;1.02;;;;;;;2.23;59.08;102125.72;4347936;32;32591;-85
2024/01/29 00:53:37;;;;;;;4.40;1.45;;;;;;;2.16;59.17;102126.38;4373198;32;33684;-84
2024/01/29 00:56:05;;;;;;;0.20;0.20;;;;;;;2.32;58.33;102132.88;4373508;32;32482;-85
2024/01/29 00:58:33;;;;;;;0.65;0.65;;;;;;;2.19;59.05;102133.41;4372818;32;35119;-85
2024/01/29 01:01:01;;;;;;;1.87;1.75;;;;;;;2.12;59.04;102147.97;4349493;32;32523;-84
2024/01/29 01:03:29;;;;;;;1.27;1.17;;;;;;;2.19;59.15;102155.13;4355842;32;33474;-84
2024/01/29 01:05:57;;;;;;;5.43;1.08;;;;;;;2.21;58.74;102153.44;4341175;32;33821;-84
2024/01/29 01:08:25;;;;;;;3.20;2.08;;;;;;;2.31;58.68;102159.78;4357530;32;33072;-84
2024/01/29 01:10:52;;;;;;;0.75;0.75;;;;;;;2.34;58.66;102167.72;4349219;32;33223;-85
2024/01/29 01:13:20;;;;;;;0.40;0.40;;;;;;;2.33;58.43;102159.81;4372823;32;33558;-85
2024/01/29 01:15:48;;;;;;;0.10;0.10;;;;;;;2.26;58.68;102157.06;4359894;32;32407;-85
2024/01/29 01:18:17;;;;;;;0.00;0.00;;;;;;;2.09;59.09;102158.31;4353230;32;33579;-85
2024/01/29 01:20:45;;;;;;;0.35;0.35;;;;;;;1.99;59.75;102167.59;4348966;32;31844;-85
2024/01/29 01:23:13;;;;;;;0.32;0.32;;;;;;;2.07;59.29;102174.75;4366764;32;33511;-86
2024/01/29 01:25:41;;;;;;;3.08;2.47;;;;;;;2.26;58.25;102167.47;4346903;32;34054;-86
2024/01/29 01:28:09;;;;;;;2.62;1.42;;;;;;;2.19;58.94;102173.38;4358473;32;33861;-84
2024/01/29 01:30:37;;;;;;;2.00;1.85;;;;;;;2.13;59.13;102170.56;4360681;32;33110;-84
2024/01/29 01:33:05;;;;;;;0.30;0.30;;;;;;;2.15;58.79;102166.31;4372320;32;33578;-85
2024/01/29 01:35:32;;;;;;;0.25;0.25;;;;;;;2.10;59.29;102173.13;4365148;32;33754;-84
2024/01/29 01:38:00;;;;;;;4.57;2.40;;;;;;;2.08;58.74;102153.94;4356700;32;33778;-84
2024/01/29 01:40:28;;;;;;;1.90;1.75;;;;;;;2.22;58.52;102149.09;4346222;32;33776;-84
2024/01/29 01:42:57;;;;;;;0.90;0.77;;;;;;;2.12;58.75;102147.97;4362432;32;33912;-84
2024/01/29 01:45:25;;;;;;;0.75;0.65;;;;;;;1.97;58.97;102147.53;4377699;32;32196;-85
2024/01/29 01:47:53;;;;;;;0.10;0.10;;;;;;;1.91;59.56;102147.38;4365265;32;34012;-85
2024/01/29 01:50:21;;;;;;;1.25;0.93;;;;;;;1.93;59.47;102145.69;4356825;32;34254;-83
2024/01/29 01:52:48;;;;;;;0.57;0.57;;;;;;;2.05;58.84;102141.72;4358989;32;31955;-83
2024/01/29 01:55:16;;;;;;;0.10;0.10;;;;;;;1.97;58.96;102142.31;4376006;32;33586;-83
2024/01/29 01:57:44;;;;;;;4.28;2.30;;;;;;;2.09;58.30;102142.69;4374164;32;33964;-83
2024/01/29 02:00:12;;;;;;;0.10;0.10;;;;;;;2.16;58.36;102144.59;4365247;32;32021;-83
2024/01/29 02:02:40;;;;;;;0.57;0.57;;;;;;;1.89;59.29;102154.25;4368216;32;34477;-83
2024/01/29 02:05:08;;;;;;;0.10;0.10;;;;;;;2.16;58.29;102155.03;4375979;32;32425;-83
2024/01/29 02:07:36;;;;;;;0.40;0.40;;;;;;;1.85;59.10;102147.16;4361194;32;33618;-83
2024/01/29 02:10:04;;;;;;;0.35;0.35;;;;;;;1.76;58.73;102143.47;4363704;32;33098;-83
2024/01/29 02:12:33;;;;;;;0.55;0.55;;;;;;;1.76;58.72;102148.69;4368672;32;33753;-83
2024/01/29 02:15:01;;;;;;;0.47;0.47;;;;;;;1.68;59.29;102152.78;4337580;32;34139;-83
2024/01/29 02:17:29;;;;;;;0.32;0.32;;;;;;;1.70;59.17;102153.69;4358220;32;32519;-83
2024/01/29 02:19:56;;;;;;;0.35;0.35;;;;;;;1.62;58.92;102150.00;4351412;32;32863;-83
2024/01/29 02:22:24;;;;;;;1.12;1.12;;;;;;;1.86;58.35;102135.94;4354386;32;31467;-85
2024/01/29 02:24:52;;;;;;;0.40;0.40;;;;;;;1.76;58.79;102146.06;4358876;32;33530;-83
2024/01/29 02:27:19;;;;;;;2.53;1.60;;;;;;;1.73;57.87;102147.69;4373352;32;33052;-84
2024/01/29 02:29:47;;;;;;;0.20;0.20;;;;;;;1.62;58.65;102147.38;4360532;32;32209;-84
2024/01/29 02:32:15;;;;;;;1.33;0.75;;;;;;;1.67;58.55;102145.81;4358885;32;33531;-85
2024/01/29 02:34:42;;;;;;;0.60;0.60;;;;;;;1.57;59.55;102148.97;4361058;32;33590;-85
2024/01/29 02:37:10;;;;;;;3.08;1.75;;;;;;;1.64;58.96;102144.81;4372313;32;34715;-84
2024/01/29 02:39:38;;;;;;;1.85;0.60;;;;;;;1.62;58.92;102144.78;4367405;32;32636;-84
2024/01/29 02:42:06;;;;;;;1.85;1.75;;;;;;;1.65;58.79;102143.97;4358057;32;34322;-84
2024/01/29 02:44:34;;;;;;;0.98;0.98;;;;;;;1.80;58.13;102134.00;4349503;32;33749;-84
2024/01/29 02:47:02;;;;;;;0.20;0.20;;;;;;;1.80;58.14;102134.00;4371918;32;33333;-84
2024/01/29 02:49:29;;;;;;;0.90;0.80;;;;;;;1.57;58.94;102130.75;4374253;32;34029;-84
2024/01/29 02:51:57;;;;;;;0.62;0.45;;;;;;;1.54;58.80;102126.31;4363452;32;32520;-84
2024/01/29 02:54:25;;;;;;;0.00;0.00;;;;;;;1.31;59.18;102127.31;4373093;32;34393;-84
2024/01/29 02:56:53;;;;;;;0.10;0.10;;;;;;;1.28;59.57;102122.91;4358067;32;34449;-84
2024/01/29 02:59:20;;;;;;;1.45;1.45;;;;;;;1.36;nan;102114.44;4357557;32;33408;-85
2024/01/29 03:01:48;;;;;;;1.67;1.55;;;;;;;1.32;59.17;102117.78;4376839;32;33877;-85
2024/01/29 03:04:16;;;;;;;1.02;0.43;;;;;;;1.22;59.75;102130.50;4360012;32;32907;-85
2024/01/29 03:06:44;;;;;;;0.65;0.45;;;;;;;1.20;59.45;102129.59;4356301;32;32704;-85
2024/01/29 03:09:14;;;;;;;2.53;1.05;;;;;;;1.30;59.17;102122.06;4360549;32;33798;-84
2024/01/29 03:11:41;;;;;;;0.77;0.77;;;;;;;1.43;58.88;102129.44;4361403;32;34008;-85
2024/01/29 03:14:09;;;;;;;0.00;0.00;;;;;;;1.19;59.83;102137.38;4368758;32;33770;-85
2024/01/29 03:16:38;;;;;;;0.00;0.00;;;;;;;1.23;59.50;102140.06;4359951;32;32168;-84
2024/01/29 03:19:07;;;;;;;0.15;0.15;;;;;;;1.30;58.82;102140.28;4369178;32;33327;-85
2024/01/29 03:21:35;;;;;;;4.35;1.55;;;;;;;1.27;58.79;102141.94;4360085;32;32810;-85
2024/01/29 03:24:03;;;;;;;0.62;0.62;;;;;;;1.08;58.99;102154.31;4358350;32;34269;-85
2024/01/29 03:26:30;;;;;;;0.47;0.47;;;;;;;1.13;58.97;102155.34;4360255;32;34693;-86
2024/01/29 03:28:58;;;;;;;2.17;0.65;;;;;;;1.18;59.12;102152.06;4336850;32;33504;-85
2024/01/29 03:31:26;;;;;;;2.03;1.45;;;;;;;1.25;58.72;102143.62;4357108;32;33968;-85
2024/01/29 03:33:55;;;;;;;0.55;0.55;;;;;;;1.26;58.66;102150.59;4357439;32;34022;-85
2024/01/29 03:36:23;;;;;;;0.70;0.70;;;;;;;1.19;59.11;102153.84;4332323;32;33692;-86
2024/01/29 03:38:51;;;;;;;0.37;0.37;;;;;;;1.40;58.23;102152.75;4374111;32;33308;-86
2024/01/29 03:41:18;;;;;;;0.45;0.45;;;;;;;1.17;58.90;102144.22;4367740;32;33762;-86
2024/01/29 03:43:46;;;;;;;0.10;0.10;;;;;;;1.13;59.44;102140.62;4350864;32;34176;-86
2024/01/29 03:46:14;;;;;;;4.10;2.37;;;;;;;1.25;59.13;102143.62;4354992;32;32582;-86
2024/01/29 03:48:41;;;;;;;1.25;1.15;;;;;;;1.24;58.59;102146.19;4343360;32;32509;-86
2024/01/29 03:51:10;;;;;;;0.68;0.68;;;;;;;1.14;58.84;102137.22;4372732;32;33506;-86
2024/01/29 03:53:38;;;;;;;0.00;0.00;;;;;;;1.06;58.83;102136.06;4349382;32;33610;-87
2024/01/29 03:56:06;;;;;;;0.32;0.32;;;;;;;1.08;59.22;102139.59;4372237;32;33607;-87
2024/01/29 03:58:34;;;;;;;0.57;0.50;;;;;;;1.16;58.80;102132.94;4359259;32;32703;-87
2024/01/29 04:01:02;;;;;;;0.28;0.28;;;;;;;1.05;59.10;102123.91;4349547;32;34132;-85
2024/01/29 04:03:30;;;;;;;1.55;1.45;;;;;;;1.05;59.03;102136.91;4366006;32;33649;-85
2024/01/29 04:05:58;;;;;;;0.28;0.28;;;;;;;1.03;59.09;102142.03;4362604;32;33476;-83
2024/01/29 04:08:26;;;;;;;0.00;0.00;;;;;;;1.54;57.24;102138.44;4349021;32;34113;-83
2024/01/29 04:10:53;;;;;;;1.52;1.30;;;;;;;1.14;58.20;102142.41;4368412;32;33783;-84
2024/01/29 04:13:21;;;;;;;0.43;0.43;;;;;;;1.13;57.64;102143.22;4359676;32;33953;-83
2024/01/29 04:15:48;;;;;;;0.30;0.30;;;;;;;0.99;58.66;102141.91;4355932;32;34764;-83
2024/01/29 04:18:17;;;;;;;0.77;0.65;;;;;;;1.06;58.27;102146.47;4368678;32;34356;-84
2024/01/29 04:20:45;;;;;;;0.10;0.10;;;;;;;1.09;57.93;102146.56;4367899;32;31993;-83
2024/01/29 04:23:13;;;;;;;2.05;1.35;;;;;;;1.18;57.95;102146.84;4360530;32;33874;-83
2024/01/29 04:25:41;;;;;;;0.47;0.47;;;;;;;1.14;57.79;102154.50;4356810;32;34299;-83
2024/01/29 04:28:08;;;;;;;0.30;0.30;;;;;;;0.90;58.74;102154.59;4371245;32;33430;-83
2024/01/29 04:30:36;;;;;;;0.17;0.17;;;;;;;1.08;58.17;102143.91;4368573;32;33449;-83
2024/01/29 04:33:04;;;;;;;1.25;1.20;;;;;;;1.19;58.23;102150.38;4361282;32;32373;-83
2024/01/29 04:35:32;;;;;;;0.70;0.70;;;;;;;1.03;58.38;102135.97;4372519;32;33705;-83
2024/01/29 04:37:59;;;;;;;0.00;0.00;;;;;;;1.18;57.91;102139.06;4361184;32;32233;-82
2024/01/29 04:40:27;;;;;;;0.75;0.75;;;;;;;1.05;57.91;102136.91;4375116;32;33907;-83
2024/01/29 04:42:56;;;;;;;0.70;0.70;;;;;;;1.05;58.59;102133.44;4363244;32;32189;-82
2024/01/29 04:45:23;;;;;;;0.10;0.10;;;;;;;1.13;57.65;102132.81;4354776;32;34004;-83
2024/01/29 04:47:51;;;;;;;0.25;0.25;;;;;;;1.14;57.49;102142.41;4373549;32;33635;-83
2024/01/29 04:50:19;;;;;;;0.30;0.30;;;;;;;0.71;58.55;102141.00;4373973;32;34422;-83
2024/01/29 04:52:46;;;;;;;0.90;0.90;;;;;;;0.73;59.13;102146.25;4354500;32;34338;-84
2024/01/29 04:55:14;;;;;;;0.10;0.10;;;;;;;0.95;58.46;102150.44;4361836;32;34093;-84
2024/01/29 04:57:42;;;;;;;2.70;1.95;;;;;;;1.08;58.29;102155.19;4359659;32;33874;-84
2024/01/29 05:00:10;;;;;;;0.98;0.90;;;;;;;1.15;57.74;102157.19;4370047;32;34655;-83
2024/01/29 05:02:38;;;;;;;0.82;0.82;;;;;;;0.86;58.79;102169.25;4362421;32;33622;-83
2024/01/29 05:05:05;;;;;;;0.17;0.08;;;;;;;0.90;58.43;102163.31;4350952;32;34717;-84
2024/01/29 05:07:33;;;;;;;0.50;0.50;;;;;;;0.85;58.97;102172.66;4359655;32;33613;-84
2024/01/29 05:10:01;;;;;;;0.45;0.45;;;;;;;0.94;58.19;102177.28;4372301;32;33615;-83
2024/01/29 05:12:30;;;;;;;0.10;0.10;;;;;;;0.88;58.50;102169.28;4359827;32;33914;-83
2024/01/29 05:14:58;;;;;;;0.35;0.35;;;;;;;0.64;59.73;102165.00;4358835;32;34001;-84
2024/01/29 05:17:26;;;;;;;0.95;0.95;;;;;;;0.60;59.29;102165.72;4361361;32;33383;-84
2024/01/29 05:19:53;;;;;;;0.35;0.35;;;;;;;0.66;59.05;102163.34;4355470;32;32536;-84
2024/01/29 05:22:22;;;;;;;0.30;0.30;;;;;;;0.69;59.13;102166.06;4368384;32;33739;-84
2024/01/29 05:24:50;;;;;;;0.77;0.77;;;;;;;0.50;59.25;102164.53;4359390;32;35131;-86
2024/01/29 05:27:17;;;;;;;0.20;0.20;;;;;;;0.64;59.49;102171.94;4358035;32;33358;-84
2024/01/29 05:29:45;;;;;;;4.60;2.85;;;;;;;0.73;59.36;102167.06;4369751;32;32380;-84
2024/01/29 05:32:13;;;;;;;0.13;0.13;;;;;;;0.72;59.01;102176.56;4348796;32;34346;-84
2024/01/29 05:34:41;;;;;;;2.12;2.00;;;;;;;0.95;57.99;102179.03;4367746;32;34008;-84
2024/01/29 05:37:09;;;;;;;0.62;0.62;;;;;;;0.74;58.68;102174.00;4359319;32;33066;-84
2024/01/29 05:39:37;;;;;;;0.00;0.00;;;;;;;0.85;58.12;102176.97;4372565;32;33901;-84
2024/01/29 05:42:04;;;;;;;0.43;0.43;;;;;;;0.82;57.96;102171.69;4357405;32;34744;-84
2024/01/29 05:44:32;;;;;;;5.95;1.08;;;;;;;0.93;57.86;102167.72;4351709;32;32461;-84
2024/01/29 05:47:00;;;;;;;1.27;1.12;;;;;;;0.83;57.75;102163.03;4359194;32;32671;-84
2024/01/29 05:49:27;;;;;;;2.72;0.93;;;;;;;0.66;58.44;102171.12;4349771;32;32477;-84
2024/01/29 05:51:55;;;;;;;1.02;1.02;;;;;;;0.46;59.40;102167.84;4367607;32;33397;-83
2024/01/29 05:54:24;;;;;;;0.22;0.22;;;;;;;0.57;59.00;102159.53;4333717;32;32861;-84
2024/01/29 05:56:52;;;;;;;0.60;0.60;;;;;;;0.63;59.14;102159.78;4357591;32;31713;-84
2024/01/29 05:59:19;;;;;;;0.20;0.20;;;;;;;0.57;58.81;102170.84;4372230;32;33240;-84
2024/01/29 06:01:47;;;;;;;0.10;0.10;;;;;;;0.61;58.63;102172.69;4358863;32;34381;-84
2024/01/29 06:04:16;;;;;;;0.10;0.10;;;;;;;0.72;58.60;102170.50;4369756;32;32885;-85
2024/01/29 06:06:44;;;;;;;0.05;0.05;;;;;;;0.77;58.25;102169.81;4357879;32;33272;-85
2024/01/29 06:09:13;;;;;;;0.10;0.10;;;;;;;0.62;58.32;102176.16;4374384;32;33857;-85
2024/01/29 06:11:41;;;;;;;0.00;0.00;;;;;;;0.66;58.38;102171.12;4358316;32;34676;-85
2024/01/29 06:14:09;;;;;;;0.22;0.22;;;;;;;0.58;57.46;102172.59;4343243;32;33036;-84
2024/01/29 06:16:37;;;;;;;0.00;0.00;;;;;;;0.42;58.85;102181.56;4372282;32;32733;-84
2024/01/29 06:19:05;;;;;;;0.47;0.47;;;;;;;0.58;58.48;102179.53;4357358;32;34321;-84
2024/01/29 06:21:34;;;;;;;0.80;0.80;;;;;;;0.63;58.39;102184.06;4351664;32;33382;-84
2024/01/29 06:24:03;;;;;;;0.57;0.57;;;;;;;0.32;59.28;102181.19;4359188;32;34470;-84
2024/01/29 06:26:30;;;;;;;1.10;1.10;;;;;;;0.39;59.49;102184.06;4357563;32;32849;-84
2024/01/29 06:28:58;;;;;;;1.02;1.02;;;;;;;0.42;59.44;102191.94;4359014;32;33621;-84
2024/01/29 06:31:26;;;;;;;0.98;0.98;;;;;;;0.43;59.47;102185.06;4345114;32;34386;-84
2024/01/29 06:33:54;;;;;;;0.15;0.15;;;;;;;0.45;58.83;102181.69;4358381;32;32529;-84
2024/01/29 06:36:25;;;;;;;0.15;0.15;;;;;;;0.46;58.93;102190.34;4360455;32;33254;-85
2024/01/29 06:38:52;;;;;;;1.55;1.45;;;;;;;0.51;58.58;102196.59;4357763;32;32251;-83
2024/01/29 06:41:24;;;;;;;1.23;1.20;;;;;;;0.69;58.15;102194.66;4372922;32;34438;-83
2024/01/29 06:43:53;;;;;;;1.17;1.17;;;;;;;0.71;57.90;102195.59;4359388;32;31789;-83
2024/01/29 06:46:21;;;;;;;0.15;0.15;;;;;;;0.55;58.95;102193.28;4358362;32;32961;-83
2024/01/29 06:48:49;;;;;;;0.90;0.90;;;;;;;0.72;58.34;102191.28;4355461;32;33187;-83
2024/01/29 06:51:16;;;;;;;0.65;0.65;;;;;;;0.74;58.11;102190.50;4368702;32;34061;-83
2024/01/29 06:53:44;;;;;;;1.42;0.82;;;;;;;0.72;58.36;102184.38;4354539;32;33352;-83
2024/01/29 06:56:12;;;;;;;2.15;1.17;;;;;;;0.91;57.45;102192.81;4331181;32;31133;-83
2024/01/29 06:58:40;;;;;;;1.12;0.40;;;;;;;0.61;58.94;102188.28;4359351;32;33503;-84
2024/01/29 07:01:08;;;;;;;2.10;1.65;;;;;;;0.61;59.02;102195.22;4364212;32;33575;-84
2024/01/29 07:03:37;;;;;;;0.80;0.80;;;;;;;0.50;59.90;102195.72;4372455;32;33188;-85
2024/01/29 07:06:05;;;;;;;0.20;0.20;;;;;;;0.53;59.90;102197.56;4371863;32;32519;-84
2024/01/29 07:08:33;;;;;;;0.85;0.82;;;;;;;0.69;59.74;102198.97;4366605;32;33332;-85
2024/01/29 07:11:01;;;;;;;4.47;3.30;;;;;;;0.77;59.38;102205.34;4374343;32;33852;-85
2024/01/29 07:13:29;;;;;;;0.43;0.43;;;;;;;0.89;59.08;102204.84;4362415;32;33509;-84
2024/01/29 07:15:58;;;;;;;2.40;2.28;;;;;;;1.01;58.47;102210.50;4354764;32;32458;-85
2024/01/29 07:18:26;;;;;;;0.30;0.30;;;;;;;1.12;58.67;102209.13;4360822;32;33675;-85
2024/01/29 07:20:54;;;;;;;2.78;2.28;;;;;;;0.96;59.35;102205.12;4373889;32;33654;-85
2024/01/29 07:23:24;;;;;;;0.65;0.65;;;;;;;1.23;58.98;102199.94;4355792;32;36046;-85
2024/01/29 07:25:51;;;;;;;0.43;0.43;;;;;;;0.98;59.22;102213.84;4355503;32;32882;-86
2024/01/29 07:28:19;;;;;;;0.52;0.52;;;;;;;1.32;59.05;102211.50;4374282;32;31719;-84
2024/01/29 07:30:47;;;;;;;3.15;1.60;;;;;;;1.14;59.72;102211.75;4345866;32;33936;-85
2024/01/29 07:33:15;;;;;;;1.83;1.75;;;;;;;1.32;59.37;102214.97;4344638;32;35359;-85
2024/01/29 07:35:43;;;;;;;0.57;0.55;;;;;;;1.65;58.71;102216.87;4365417;32;33194;-86
2024/01/29 07:38:11;;;;;;;0.50;0.50;;;;;;;1.47;59.69;102212.87;4361093;32;32887;-87
2024/01/29 07:40:38;;;;;;;0.05;0.05;;;;;;;1.51;60.13;102221.66;4350808;32;32811;-84
2024/01/29 07:43:06;;;;;;;2.10;1.35;;;;;;;1.65;59.75;102217.78;4364939;32;33387;-84
2024/01/29 07:45:34;;;;;;;0.45;0.45;;;;;;;1.62;60.64;102220.31;4368369;32;32131;-84
2024/01/29 07:48:04;;;;;;;7.30;2.00;;;;;;;1.82;60.14;102226.13;4355594;32;34967;-84
2024/01/29 07:50:32;;;;;;;3.40;2.08;;;;;;;1.91;59.78;102212.50;4369073;32;33740;-84
2024/01/29 07:53:00;;;;;;;5.22;4.72;;;;;;;1.92;60.17;102211.66;4356290;32;32131;-84
2024/01/29 07:55:30;;;;;;;4.28;3.90;;;;;;;1.95;60.71;102206.56;4364592;32;34181;-84
2024/01/29 07:57:57;;;;;;;2.00;1.90;;;;;;;1.99;60.97;102197.97;4365018;32;33873;-84
2024/01/29 08:00:25;;;;;;;4.93;4.55;;;;;;;2.34;60.33;102201.59;4372194;32;34014;-84
2024/01/29 08:02:53;;;;;;;1.90;1.77;;;;;;;2.26;60.43;102198.75;4357147;32;33218;-84
2024/01/29 08:05:21;;;;;;;1.83;1.25;;;;;;;2.21;60.40;102195.16;4362747;32;32969;-84
2024/01/29 08:07:49;;;;;;;3.12;2.87;;;;;;;2.77;59.27;102201.06;4373902;32;33824;-84
2024/01/29 08:10:17;;;;;;;3.35;3.08;;;;;;;2.64;60.06;102201.56;4353149;32;34083;-84
2024/01/29 08:12:46;;;;;;;2.83;2.62;;;;;;;2.93;59.89;102198.84;4359118;32;32494;-84
2024/01/29 08:15:15;;;;;;;3.22;1.52;;;;;;;2.99;59.59;102204.19;4371083;32;33322;-84
2024/01/29 08:17:43;;;;;;;2.72;2.53;;;;;;;3.29;59.31;102194.53;4373550;32;33518;-84
2024/01/29 08:20:11;;;;;;;2.00;1.90;;;;;;;3.57;58.92;102184.75;4346152;32;32900;-84
2024/01/29 08:22:38;;;;;;;0.75;0.75;;;;;;;3.58;59.20;102183.91;4372971;32;32199;-84
2024/01/29 08:25:07;;;;;;;3.53;3.22;;;;;;;3.63;59.23;102177.06;4358537;32;33216;-84
2024/01/29 08:27:35;;;;;;;5.22;3.42;;;;;;;3.89;58.60;102177.62;4371238;32;32251;-85
2024/01/29 08:30:03;;;;;;;3.10;2.35;;;;;;;3.95;58.83;102172.53;4375056;32;34006;-84
2024/01/29 08:32:31;;;;;;;4.20;3.90;;;;;;;4.15;58.84;102175.56;4359854;32;33216;-85
2024/01/29 08:34:59;;;;;;;1.42;1.40;;;;;;;4.08;58.85;102186.72;4351921;32;31924;-84
2024/01/29 08:37:27;;;;;;;1.95;1.85;;;;;;;4.28;58.87;102181.94;4369336;32;33502;-85
2024/01/29 08:39:55;;;;;;;1.50;1.17;;;;;;;4.27;58.92;102180.16;4345826;32;33710;-84
2024/01/29 08:42:23;;;;;;;1.58;1.48;;;;;;;4.32;59.26;102187.25;4358240;32;33487;-85
2024/01/29 08:44:56;;;;;;;1.42;1.33;;;;;;;4.66;58.89;102179.19;4336604;32;33359;-85
2024/01/29 08:47:24;;;;;;;0.82;0.82;;;;;;;4.65;58.55;102183.50;4349413;32;33265;-85
2024/01/29 08:49:52;;;;;;;1.12;1.12;;;;;;;4.95;57.84;102184.94;4354764;32;33973;-86
2024/01/29 08:52:20;;;;;;;0.50;0.50;;;;;;;5.03;57.55;102184.22;4356437;32;33197;-85
2024/01/29 08:54:48;;;;;;;1.65;0.57;;;;;;;5.09;57.38;102180.81;4353068;32;35181;-85
2024/01/29 08:57:16;;;;;;;0.20;0.20;;;;;;;5.29;56.91;102179.41;4361657;32;33899;-86
2024/01/29 08:59:44;;;;;;;0.50;0.47;;;;;;;5.50;56.60;102172.72;4355435;32;33588;-86
2024/01/29 09:02:12;;;;;;;3.20;1.15;;;;;;;5.61;56.16;102171.16;4359808;32;32130;-86
2024/01/29 09:04:41;;;;;;;0.57;0.57;;;;;;;5.77;55.79;102169.63;4358484;32;32060;-86
2024/01/29 09:07:09;;;;;;;0.98;0.75;;;;;;;6.10;54.63;102175.34;4360632;32;33257;-86
2024/01/29 09:09:37;;;;;;;0.47;0.47;;;;;;;6.32;52.94;102181.75;4358527;32;34411;-86
2024/01/29 09:12:05;;;;;;;0.40;0.40;;;;;;;5.99;53.12;102178.69;4350577;32;31354;-87
2024/01/29 09:14:33;;;;;;;1.12;1.05;;;;;;;6.41;52.51;102179.22;4367590;32;35473;-86
2024/01/29 09:17:02;;;;;;;2.30;2.08;;;;;;;6.59;51.44;102182.91;4382465;32;33550;-87
2024/01/29 09:19:29;;;;;;;0.55;0.55;;;;;;;6.63;51.15;102182.06;4347893;32;32617;-85
2024/01/29 09:21:57;;;;;;;1.90;0.95;;;;;;;6.89;50.45;102174.47;4358001;32;33117;-85
2024/01/29 09:24:25;;;;;;;0.00;0.00;;;;;;;6.85;50.71;102186.69;4348980;32;33559;-85
2024/01/29 09:26:55;;;;;;;0.13;0.13;;;;;;;6.89;50.22;102177.97;4356459;32;34166;-85
2024/01/29 09:29:24;;;;;;;0.22;0.22;;;;;;;7.07;50.24;102179.00;4358684;32;34709;-85
2024/01/29 09:31:52;;;;;;;1.58;1.17;;;;;;;7.16;50.33;102171.19;4358505;32;33559;-85
2024/01/29 09:34:22;;;;;;;0.90;0.90;;;;;;;6.98;50.38;102179.81;4355443;32;32706;-85
2024/01/29 09:36:50;;;;;;;0.10;0.10;;;;;;;7.51;49.60;102175.84;4369813;32;33642;-86
2024/01/29 09:39:19;;;;;;;0.57;0.55;;;;;;;7.82;48.22;102179.53;4362224;32;34114;-86
2024/01/29 09:41:46;;;;;;;1.12;0.88;;;;;;;8.24;47.42;102178.84;4360344;32;32291;-86
2024/01/29 09:44:14;;;;;;;0.00;0.00;;;;;;;7.98;48.21;102170.88;4362815;32;32720;-86
2024/01/29 09:46:44;;;;;;;0.00;0.00;;;;;;;8.06;47.17;102173.50;4357631;32;31945;-86
2024/01/29 09:49:12;;;;;;;0.10;0.10;;;;;;;8.26;47.33;102173.59;4359821;32;33698;-86
2024/01/29 09:51:41;;;;;;;4.45;1.95;;;;;;;8.62;45.77;102176.37;4355445;32;32438;-86
2024/01/29 09:54:11;;;;;;;0.10;0.10;;;;;;;8.43;46.73;102178.06;4356070;32;32084;-85
2024/01/29 09:56:39;;;;;;;4.50;1.37;;;;;;;8.25;47.04;102180.62;4358130;32;33224;-86
2024/01/29 09:59:06;;;;;;;1.00;0.43;;;;;;;8.33;46.50;102171.00;4334040;32;33082;-87
2024/01/29 10:01:36;;;;;;;0.40;0.40;;;;;;;8.63;46.14;102174.62;4373419;32;33951;-85
2024/01/29 10:04:04;;;;;;;1.20;0.95;;;;;;;8.95;45.64;102175.56;4365283;32;32528;-86
2024/01/29 10:06:32;;;;;;;2.72;1.17;;;;;;;9.30;44.89;102166.75;4361154;32;33440;-85
2024/01/29 10:09:00;;;;;;;1.27;1.20;;;;;;;9.14;44.30;102183.47;4339685;32;34084;-85
2024/01/29 10:11:29;;;;;;;0.03;0.03;;;;;;;9.03;44.48;102169.44;4361322;32;32453;-86
2024/01/29 10:14:00;;;;;;;1.17;1.17;;;;;;;9.36;43.41;102160.62;4359207;32;32283;-86
2024/01/29 10:16:28;;;;;;;0.40;0.40;;;;;;;9.09;43.51;102164.16;4341454;32;212781;-85
2024/01/29 10:19:00;;;;;;;0.68;0.68;;;;;;;8.74;44.31;102165.00;4345171;32;33713;-86
2024/01/29 10:21:36;;;;;;;8.93;1.95;;;;;;;9.05;44.40;102158.00;4376236;32;34109;-86
2024/01/29 10:24:11;;;;;;;1.20;0.62;;;;;;;9.00;44.22;102162.37;4361293;32;31501;-86
2024/01/29 10:26:40;;;;;;;0.45;0.45;;;;;;;9.42;42.93;102155.34;4356965;32;33179;-85
2024/01/29 10:29:10;;;;;;;0.40;0.40;;;;;;;9.21;43.64;102161.53;4357876;32;33603;-86
2024/01/29 10:31:38;;;;;;;0.43;0.43;;;;;;;9.52;43.22;102154.44;4362595;32;33273;-86
2024/01/29 10:34:06;;;;;;;0.32;0.32;;;;;;;9.52;42.92;102154.44;4348620;32;31971;-86
2024/01/29 10:36:35;;;;;;;0.80;0.80;;;;;;;9.71;42.74;102152.63;4370301;32;33788;-87
2024/01/29 10:39:04;;;;;;;0.15;0.15;;;;;;;9.68;43.03;102161.41;4378846;32;33580;-88
2024/01/29 10:41:32;;;;;;;0.57;0.55;;;;;;;9.95;42.19;102162.25;4361051;32;33273;-86
2024/01/29 10:44:04;;;;;;;0.35;0.35;;;;;;;10.69;40.23;102162.81;4361054;32;33797;-87
2024/01/29 10:46:38;;;;;;;0.52;0.52;;;;;;;10.48;41.59;102158.50;4358822;32;33232;-87
2024/01/29 10:49:07;;;;;;;1.40;0.65;;;;;;;10.07;41.28;102156.94;4349218;32;34192;-86
2024/01/29 10:51:35;;;;;;;2.40;1.25;;;;;;;10.20;40.96;102158.59;4356718;32;35176;-86
2024/01/29 10:54:03;;;;;;;0.35;0.35;;;;;;;9.47;42.38;102141.25;4373493;32;33158;-87
2024/01/29 10:56:31;;;;;;;8.38;1.55;;;;;;;9.76;42.08;102145.59;4369177;32;33711;-86
2024/01/29 10:59:00;;;;;;;3.97;2.03;;;;;;;9.91;41.71;102137.63;4342149;32;32810;-86
2024/01/29 11:01:32;;;;;;;0.88;0.60;;;;;;;10.12;42.00;102138.44;4353743;32;31626;-87
2024/01/29 11:04:00;;;;;;;1.67;1.48;;;;;;;10.44;41.78;102131.25;4358586;32;33181;-86
2024/01/29 11:06:45;;;;;;;0.62;0.62;;;;;;;10.07;42.03;102129.66;4350902;32;33131;-86
2024/01/29 11:09:15;;;;;;;1.65;1.42;;;;;;;10.48;41.73;102127.69;4362764;32;32331;-86
2024/01/29 11:11:44;;;;;;;0.22;0.22;;;;;;;10.57;41.49;102121.47;4360797;32;33582;-86
2024/01/29 11:14:12;;;;;;;0.65;0.65;;;;;;;11.08;40.72;102113.16;4374849;32;33777;-87
2024/01/29 11:16:40;;;;;;;1.17;1.17;;;;;;;11.18;40.43;102104.25;4354595;32;32643;-87
2024/01/29 11:19:08;;;;;;;1.75;0.82;;;;;;;11.28;40.78;102095.31;4351344;32;33284;-86
2024/01/29 11:21:44;;;;;;;1.55;1.45;;;;;;;11.28;39.93;102100.63;4352251;32;32351;-87
2024/01/29 11:24:12;;;;;;;0.62;0.62;;;;;;;10.99;40.77;102093.84;4359197;32;31748;-87
2024/01/29 11:26:40;;;;;;;1.05;1.05;;;;;;;11.28;40.07;102085.62;4358379;32;32148;-86
2024/01/29 11:29:10;;;;;;;9.57;1.35;;;;;;;11.19;40.11;102085.72;4348673;32;32665;-85
2024/01/29 11:31:42;;;;;;;0.43;0.43;;;;;;;11.43;39.70;102081.94;4346813;32;32916;-85
2024/01/29 11:34:12;;;;;;;0.82;0.82;;;;;;;11.12;38.96;102075.22;4347575;32;32140;-85
2024/01/29 11:36:40;;;;;;;0.43;0.35;;;;;;;11.52;39.05;102073.91;4372799;32;33730;-85